Date,TemperatureHighF,TemperatureAvgF,TemperatureLowF,DewpointHighF,DewpointAvgF,DewpointLowF,HumidityHigh,HumidityAvg,HumidityLow,PressureMaxIn,PressureMinIn,WindSpeedMaxMPH,WindSpeedAvgMPH,GustSpeedMaxMPH,PrecipitationSumIn
2013-1-1,73,62,52,67,61,50,100,94,79,30.07,29.88,15,4,16,0.43
2013-1-2,52,46,42,50,44,41,97,93,87,30.23,30.04,12,4,12,0.09
2013-1-3,49,41,32,41,33,26,97,77,45,30.38,30.20,15,4,15,0.09
2013-1-4,58,44,32,40,32,28,91,66,34,30.45,30.32,10,2,13,0.00
2013-1-5,52,46,39,43,37,33,90,71,56,30.37,30.22,6,1,7,0.00
2013-1-6,50,46,43,47,45,42,97,94,87,30.30,30.18,11,3,12,0.45
2013-1-7,63,46,34,46,40,33,100,82,40,30.33,30.18,9,1,12,0.00
2013-1-8,61,54,44,61,52,41,100,91,85,30.22,30.10,5,1,8,0.30
2013-1-9,70,66,61,69,66,61,100,98,93,30.19,30.08,7,1,12,0.20
2013-1-10,71,67,62,69,66,61,100,97,94,30.18,29.96,9,2,14,1.06
2013-1-11,74,68,64,71,68,63,100,97,89,30.10,30.01,12,2,16,1.78
2013-1-12,76,71,68,73,69,68,100,96,82,30.06,29.92,12,2,14,0.01
2013-1-13,75,68,50,73,66,49,97,95,89,30.07,29.87,14,6,18,1.27
2013-1-14,51,47,41,51,47,40,100,99,97,30.14,30.03,14,5,14,0.48
2013-1-15,53,47,43,53,47,43,100,100,100,30.08,29.94,7,2,9,0.20
2013-1-16,46,41,37,46,40,36,100,97,93,30.12,29.97,11,3,13,0.25
2013-1-17,52,42,35,39,36,34,97,82,55,30.41,30.12,16,3,16,0.02
2013-1-18,61,44,35,43,38,34,97,82,45,30.53,30.39,10,2,14,0.01
2013-1-19,66,48,35,51,42,34,100,82,49,30.40,30.23,7,0,8,0.00
2013-1-20,68,49,38,55,43,35,100,84,35,30.27,30.12,6,0,7,0.00
2013-1-21,66,50,36,49,43,35,100,81,47,30.22,30.13,10,1,10,0.01
2013-1-22,63,47,38,45,38,30,96,74,45,30.37,30.21,8,1,9,0.00
2013-1-23,71,51,36,53,44,35,100,79,40,30.39,30.28,9,1,10,0.00
2013-1-24,75,58,42,59,52,41,100,84,53,30.34,30.21,9,1,12,0.00
2013-1-25,74,60,47,60,55,46,100,85,58,30.25,30.13,14,2,21,0.00
2013-1-26,72,59,50,64,57,50,100,93,71,30.26,30.17,6,0,7,0.01
2013-1-27,75,62,54,62,58,53,100,90,57,30.29,30.19,11,1,13,0.01
2013-1-28,77,66,58,66,63,57,100,90,65,30.25,30.11,11,1,16,0.00
2013-1-29,79,71,66,71,69,66,97,92,75,30.11,29.79,19,5,22,0.00
2013-1-30,74,59,42,71,52,33,97,79,43,30.17,29.65,19,6,30,1.17
2013-1-31,61,49,32,40,33,26,100,60,27,30.33,30.17,9,1,10,0.00
2013-2-1,63,47,38,43,39,36,100,77,39,30.40,30.31,11,1,12,0.00
2013-2-2,68,50,34,52,43,28,97,77,53,30.34,30.17,13,2,18,0.00
2013-2-3,68,53,40,53,42,32,100,73,28,30.28,30.12,10,1,10,0.00
2013-2-4,63,51,39,56,46,38,97,83,57,30.12,29.95,2,0,6,0.50
2013-2-5,70,61,54,63,58,53,100,93,76,30.03,29.93,5,0,8,0.19
2013-2-6,69,59,52,62,57,52,100,94,74,30.13,29.99,10,1,14,0.08
2013-2-7,71,62,52,64,58,51,100,89,72,29.99,29.82,18,3,22,1.48
2013-2-8,74,59,50,63,55,50,100,89,62,30.17,29.95,14,3,14,0.01
2013-2-9,70,55,44,58,51,42,97,85,64,30.24,30.07,11,2,12,0.00
2013-2-10,73,68,58,71,66,57,97,94,90,30.07,29.90,17,5,21,0.05
2013-2-11,72,61,56,70,60,53,100,95,86,30.13,29.96,15,4,20,0.85
2013-2-12,66,60,56,66,60,55,100,99,96,30.06,29.74,9,2,12,0.05
2013-2-13,64,50,38,62,47,37,97,91,77,30.08,29.82,9,2,10,0.08
2013-2-14,61,46,36,44,40,35,100,82,41,30.17,30.05,7,1,8,0.00
2013-2-15,66,50,36,46,40,31,100,73,29,30.18,30.06,10,1,10,0.01
2013-2-16,52,45,31,42,29,18,95,58,28,30.30,30.14,16,4,18,0.00
2013-2-17,61,43,28,37,31,26,96,68,36,30.38,30.24,12,2,13,0.00
2013-2-18,65,54,38,60,49,36,100,84,60,30.25,29.97,15,3,25,0.17
2013-2-19,65,58,44,62,44,27,97,64,29,30.24,29.94,17,5,20,1.31
2013-2-20,62,48,39,37,30,24,80,54,25,30.27,30.04,12,2,13,0.00
2013-2-21,70,59,44,68,52,33,97,79,59,30.05,29.79,15,3,17,0.20
2013-2-22,71,63,56,70,58,48,97,84,49,29.98,29.85,10,3,16,0.51
2013-2-23,60,57,52,57,55,50,97,92,84,29.95,29.83,11,2,11,1.78
2013-2-24,74,59,45,60,53,44,97,83,54,29.98,29.77,8,2,10,0.45
2013-2-25,67,63,59,66,62,53,100,95,80,29.82,29.45,15,2,20,3.66
2013-2-26,60,52,45,53,41,36,95,68,49,29.92,29.53,15,4,23,0.00
2013-2-27,68,54,44,48,44,41,100,74,37,30.03,29.92,11,1,13,0.00
2013-2-28,55,48,37,43,36,29,95,67,40,30.12,30.02,10,2,10,0.00
2013-3-1,60,47,35,41,34,27,100,67,33,30.17,30.02,13,2,17,0.00
2013-3-2,46,38,30,35,29,25,97,71,53,30.25,30.14,14,3,17,0.00
2013-3-3,56,40,27,34,27,22,93,65,28,30.29,30.14,11,2,12,0.00
2013-3-4,68,53,34,56,46,33,100,79,53,30.14,29.95,17,5,25,0.00
2013-3-5,76,63,47,63,54,39,89,73,40,30.18,29.93,15,4,21,0.00
2013-3-6,62,50,36,40,32,27,79,53,29,30.32,30.18,12,3,17,0.00
2013-3-7,65,48,33,42,36,31,95,68,33,30.36,30.22,8,1,10,0.00
2013-3-8,74,53,37,46,40,34,97,68,25,30.31,30.17,9,1,14,0.00
2013-3-9,74,59,45,60,52,42,95,80,52,30.19,29.98,12,2,18,0.00
2013-3-10,76,69,63,66,63,60,96,83,59,29.99,29.87,23,5,30,0.00
2013-3-11,70,55,45,68,50,40,97,84,59,30.02,29.80,12,3,14,1.37
2013-3-12,66,50,36,44,40,35,100,72,36,30.21,30.02,11,2,12,0.00
2013-3-13,65,52,38,44,33,24,100,56,21,30.38,30.20,17,4,17,0.00
2013-3-14,69,51,35,41,32,24,90,54,23,30.44,30.28,9,1,10,0.00
2013-3-15,76,57,39,51,43,38,100,66,26,30.31,30.12,15,3,20,0.00
2013-3-16,77,62,45,58,52,44,100,74,45,30.13,29.94,17,3,21,0.00
2013-3-17,78,64,54,65,59,53,100,84,55,29.99,29.83,13,2,18,0.00
2013-3-18,83,72,64,70,66,61,96,84,60,29.89,29.74,13,3,18,0.00
2013-3-19,78,65,52,67,52,43,96,66,37,30.03,29.87,15,4,15,0.00
2013-3-20,67,57,44,46,41,33,86,56,32,30.15,29.99,15,3,16,0.00
2013-3-21,69,53,39,45,37,29,92,61,24,30.07,29.88,8,1,13,0.00
2013-3-22,72,62,50,63,55,45,91,80,69,29.90,29.78,11,2,18,0.00
2013-3-23,75,69,63,72,67,61,100,93,81,29.85,29.57,10,1,12,0.04
2013-3-24,72,63,46,72,54,31,100,75,28,30.00,29.57,12,3,18,0.04
2013-3-25,59,46,36,36,29,21,86,56,24,30.25,30.00,15,3,18,0.00
2013-3-26,55,44,31,34,28,24,90,57,32,30.39,30.25,13,3,13,0.00
2013-3-27,62,45,29,38,31,25,96,64,26,30.44,30.28,8,1,8,0.00
2013-3-28,73,52,36,46,39,35,100,68,26,30.36,30.23,10,1,13,0.00
2013-3-29,75,58,42,57,48,37,100,75,27,30.32,30.18,12,2,13,0.00
2013-3-30,76,62,48,60,55,48,100,79,46,30.20,30.00,11,3,17,0.00
2013-3-31,78,63,55,66,60,55,100,91,63,30.05,29.84,11,1,14,0.52
2013-4-1,76,63,54,62,57,52,100,85,51,30.09,29.93,9,1,9,0.00
2013-4-2,80,64,48,60,54,48,100,75,33,30.12,29.97,8,1,10,0.00
2013-4-3,65,58,53,62,57,52,97,95,84,30.05,29.84,16,3,20,2.32
2013-4-4,60,54,50,56,52,47,97,92,82,30.02,29.90,5,1,9,0.00
2013-4-5,68,54,47,53,48,44,96,81,54,30.15,30.01,11,2,11,0.00
2013-4-6,74,58,43,56,50,42,100,78,47,30.16,30.06,11,1,13,0.00
2013-4-7,78,63,49,63,56,48,100,81,51,30.09,29.98,10,1,13,0.00
2013-4-8,83,69,57,69,64,57,100,85,54,30.02,29.94,13,2,21,0.00
2013-4-9,80,74,70,73,71,68,95,89,76,30.02,29.91,8,2,14,0.00
2013-4-10,82,74,71,72,70,70,96,88,73,29.97,29.82,13,2,20,0.02
2013-4-11,78,68,53,74,66,52,97,95,85,29.83,29.60,18,2,23,3.60
2013-4-12,74,59,48,55,50,45,97,76,39,29.98,29.83,10,2,12,0.01
2013-4-13,80,63,47,58,51,46,100,71,31,30.04,29.87,7,1,9,0.00
2013-4-14,78,64,58,64,60,56,100,86,55,29.91,29.73,17,2,20,1.98
2013-4-15,80,70,59,74,68,58,100,93,78,29.98,29.80,6,0,10,0.01
2013-4-16,86,76,73,75,73,72,97,89,66,30.08,29.97,10,1,14,0.00
2013-4-17,84,76,70,75,72,69,100,88,71,30.08,29.96,9,1,12,0.00
2013-4-18,82,75,69,74,72,68,100,91,77,29.96,29.78,11,2,17,0.09
2013-4-19,75,54,46,74,49,42,97,85,67,30.17,29.78,12,2,20,0.62
2013-4-20,69,54,39,49,43,38,100,72,35,30.26,30.10,9,2,10,0.00
2013-4-21,76,59,45,54,47,41,96,68,34,30.21,30.09,9,1,12,0.00
2013-4-22,79,64,49,65,58,47,100,83,59,30.13,30.01,6,0,8,0.00
2013-4-23,81,69,59,69,65,59,100,87,62,30.07,29.99,8,1,13,0.00
2013-4-24,72,65,57,70,64,56,100,97,90,30.17,30.00,8,2,14,1.56
2013-4-25,73,61,54,60,54,50,97,81,51,30.30,30.17,8,3,9,0.00
2013-4-26,80,65,51,64,56,46,95,75,45,30.26,30.19,6,1,8,0.00
2013-4-27,83,72,64,70,67,63,100,86,60,30.19,30.00,9,1,13,0.00
2013-4-28,74,69,63,72,68,62,100,96,83,30.05,29.92,8,0,10,0.37
2013-4-29,85,70,58,68,63,58,100,82,45,29.97,29.86,5,0,8,0.02
2013-4-30,79,68,62,71,67,62,100,95,75,29.91,29.85,7,0,13,0.91
2013-5-1,79,70,65,74,68,65,100,95,76,29.89,29.82,8,1,13,1.23
2013-5-2,77,69,64,69,66,64,100,91,74,29.94,29.84,8,1,13,0.00
2013-5-3,72,61,46,68,59,43,97,92,82,30.01,29.86,11,2,13,0.13
2013-5-4,71,55,40,51,45,39,100,72,35,30.01,29.86,8,1,12,0.00
2013-5-5,65,56,47,53,47,43,97,75,47,30.03,29.84,11,2,18,0.00
2013-5-6,76,60,44,57,50,43,100,75,45,30.02,29.90,12,1,17,0.00
2013-5-7,81,66,52,64,58,51,100,78,45,30.04,29.95,6,0,9,0.00
2013-5-8,84,69,55,65,60,55,100,75,45,30.10,30.00,7,0,10,0.00
2013-5-9,85,72,60,70,65,59,100,81,50,30.11,30.02,8,1,12,0.00
2013-5-10,72,68,62,70,67,62,100,95,88,30.08,29.87,18,1,18,1.31
2013-5-11,76,68,61,70,66,61,100,93,78,30.06,29.89,4,0,7,0.46
2013-5-12,78,69,60,67,61,52,100,77,55,30.13,30.02,7,1,8,0.00
2013-5-13,80,64,50,57,50,44,95,64,31,30.28,30.13,6,1,9,0.00
2013-5-14,86,69,53,63,57,52,100,71,34,30.27,30.13,5,0,10,0.00
2013-5-15,86,70,58,67,60,56,100,75,41,30.19,30.02,4,0,10,0.00
2013-5-16,85,73,61,72,66,60,100,81,52,30.03,29.91,10,2,20,0.00
2013-5-17,86,77,71,74,72,70,100,85,66,30.01,29.93,11,2,16,0.00
2013-5-18,88,78,71,76,73,71,100,84,61,30.05,29.97,8,1,12,0.00
2013-5-19,86,77,70,77,74,70,100,89,72,30.01,29.93,10,1,13,0.00
2013-5-20,90,79,73,78,74,73,100,86,60,30.00,29.91,9,1,13,0.00
2013-5-21,90,79,70,76,73,68,100,84,50,29.96,29.83,8,1,14,0.00
2013-5-22,80,73,68,72,70,67,100,93,72,30.01,29.88,8,0,10,0.78
2013-5-23,92,78,66,76,72,66,100,84,54,30.04,29.94,4,0,7,0.00
2013-5-24,87,78,70,74,70,62,100,80,59,30.14,30.01,8,1,8,0.00
2013-5-25,89,74,61,68,60,54,95,65,38,30.23,30.11,6,0,8,0.00
2013-5-26,88,74,63,70,65,60,100,77,42,30.18,30.10,4,0,9,0.00
2013-5-27,87,75,67,75,68,64,97,80,57,30.12,30.03,6,1,10,0.00
2013-5-28,87,74,61,72,66,61,100,79,47,30.07,29.99,7,1,10,0.70
2013-5-29,87,77,70,78,74,70,100,91,68,30.01,29.94,8,1,14,0.30
2013-5-30,85,77,72,77,74,72,100,92,74,30.00,29.94,8,1,14,0.12
2013-5-31,88,80,74,79,76,74,100,89,69,30.01,29.93,8,1,12,0.14
2013-6-1,92,80,72,80,75,72,100,87,57,29.96,29.90,7,0,12,0.10
2013-6-2,92,78,68,77,73,67,100,88,50,30.00,29.85,14,1,18,0.18
2013-6-3,92,80,71,77,74,71,100,84,53,29.91,29.81,4,0,8,0.06
2013-6-4,92,80,75,79,76,75,100,89,60,29.92,29.84,6,0,7,0.06
2013-6-5,92,80,74,79,76,72,100,86,60,29.91,29.79,7,0,12,0.05
2013-6-6,88,75,68,80,72,67,100,91,66,29.84,29.73,11,0,12,2.05
2013-6-7,87,76,69,75,72,69,100,88,62,29.88,29.76,4,0,8,0.09
2013-6-8,90,78,70,77,73,69,100,85,59,29.99,29.87,8,0,12,0.06
2013-6-9,87,76,71,79,74,70,100,94,73,29.96,29.88,6,0,9,0.36
2013-6-10,90,79,73,81,76,73,100,92,64,30.01,29.94,7,0,12,0.34
2013-6-11,95,83,74,81,76,72,100,83,52,30.08,29.99,5,0,8,0.00
2013-6-12,94,82,72,80,76,72,100,83,54,30.08,29.99,6,0,9,0.00
2013-6-13,94,82,72,79,75,72,100,82,53,30.04,29.87,6,0,10,0.00
2013-6-14,93,82,74,81,76,69,97,81,59,29.93,29.85,7,1,7,0.00
2013-6-15,95,81,70,78,72,67,96,76,47,30.00,29.92,5,0,8,0.00
2013-6-16,95,82,72,81,76,72,100,86,58,30.03,29.93,10,0,12,0.47
2013-6-17,93,82,74,79,76,74,100,85,58,30.00,29.90,9,1,16,0.00
2013-6-18,92,81,73,78,75,72,100,82,58,29.99,29.86,10,1,12,0.04
2013-6-19,85,77,72,77,74,72,100,91,72,30.03,29.92,4,0,6,0.13
2013-6-20,92,79,71,80,74,70,100,88,58,30.09,30.00,8,0,9,0.27
2013-6-21,92,80,71,79,74,71,100,85,55,30.10,30.04,7,0,9,0.01
2013-6-22,93,80,72,80,75,71,100,85,54,30.09,29.98,6,0,12,0.00
2013-6-23,93,78,71,79,75,70,100,91,59,30.07,29.99,15,0,20,2.15
2013-6-24,92,81,73,80,76,71,100,85,55,30.12,30.03,8,1,12,0.00
2013-6-25,94,82,73,79,76,73,100,83,54,30.10,29.99,5,0,7,0.00
2013-6-26,96,83,74,81,76,74,100,83,56,30.05,29.93,5,0,9,0.00
2013-6-27,95,84,75,80,78,75,100,84,57,30.00,29.89,6,0,9,0.00
2013-6-28,94,84,75,81,77,75,100,83,61,29.92,29.75,5,0,9,0.00
2013-6-29,90,79,71,79,75,69,100,88,68,29.83,29.67,16,1,20,0.10
2013-6-30,93,79,69,76,71,66,100,79,42,29.78,29.70,1,0,6,0.00
2013-7-1,89,76,67,75,69,66,100,81,51,29.90,29.78,6,0,8,0.00
2013-7-2,91,77,69,75,70,68,97,81,51,29.99,29.88,4,0,6,0.03
2013-7-3,87,77,71,74,71,69,97,84,60,30.01,29.91,5,0,8,0.03
2013-7-4,88,78,72,78,74,71,100,88,62,29.97,29.89,5,0,7,0.00
2013-7-5,78,75,72,77,73,70,100,95,84,30.02,29.94,7,0,10,0.02
2013-7-6,86,77,72,78,74,71,100,92,72,30.02,29.95,4,0,9,0.25
2013-7-7,88,76,74,80,76,74,100,97,75,30.10,29.97,7,0,14,1.14
2013-7-8,93,78,72,79,75,72,100,93,58,30.15,30.04,12,0,18,1.47
2013-7-9,93,81,72,80,75,72,100,85,52,30.17,30.06,6,0,9,0.00
2013-7-10,95,82,74,81,77,74,100,87,59,30.09,29.95,5,0,10,0.00
2013-7-11,90,76,71,80,75,69,100,95,66,30.00,29.88,9,0,18,2.24
2013-7-12,94,80,71,81,74,71,100,86,58,29.93,29.82,4,0,6,0.00
2013-7-13,91,78,72,79,74,68,100,88,62,29.93,29.84,5,0,8,0.01
2013-7-14,87,76,71,80,74,69,100,94,71,30.00,29.90,8,0,12,1.04
2013-7-15,90,77,71,79,74,71,100,92,61,30.10,29.99,6,0,7,0.18
2013-7-16,84,77,74,78,76,74,100,96,79,30.16,30.05,7,1,10,0.43
2013-7-17,92,80,73,79,76,73,100,90,58,30.20,30.10,6,1,8,0.38
2013-7-18,93,79,72,78,74,70,100,86,52,30.14,29.98,14,1,17,0.03
2013-7-19,92,79,71,79,74,71,100,88,56,30.06,29.94,6,0,9,0.01
2013-7-20,93,80,72,78,75,72,100,87,58,29.99,29.90,5,0,12,0.00
2013-7-21,86,77,72,79,75,72,100,95,77,30.05,29.97,8,0,17,0.36
2013-7-22,91,78,74,83,76,72,100,95,69,30.05,29.97,10,1,20,0.21
2013-7-23,93,82,74,81,77,74,100,86,60,30.04,29.90,7,1,12,0.00
2013-7-24,92,83,77,79,77,74,100,85,61,29.96,29.85,8,1,14,0.01
2013-7-25,90,80,73,79,76,73,100,88,64,30.02,29.88,5,1,7,0.01
2013-7-26,93,81,71,78,74,70,100,81,48,30.05,29.94,5,0,8,0.00
2013-7-27,83,78,74,80,76,73,100,94,84,29.95,29.84,8,0,12,0.33
2013-7-28,87,80,75,79,76,74,100,90,72,30.00,29.86,6,0,7,0.00
2013-7-29,93,82,76,81,77,76,100,86,62,30.08,29.97,5,1,8,0.00
2013-7-30,93,81,75,82,78,75,100,92,67,30.12,30.04,4,0,8,0.14
2013-7-31,94,82,75,81,78,74,100,89,61,30.09,29.95,6,0,8,0.11
2013-8-1,94,82,74,82,77,72,100,87,58,30.00,29.88,16,0,20,0.54
2013-8-2,94,82,72,81,76,72,100,85,55,30.00,29.91,4,0,6,0.01
2013-8-3,96,84,73,82,78,73,100,85,54,30.05,29.97,3,0,6,0.00
2013-8-4,96,84,75,82,78,75,100,83,56,30.08,29.95,4,0,6,0.00
2013-8-5,96,84,76,82,78,75,100,83,58,30.03,29.92,8,0,12,0.00
2013-8-6,96,84,75,80,78,75,100,82,54,29.99,29.88,5,0,8,0.00
2013-8-7,98,85,77,83,79,76,100,82,51,29.96,29.86,6,0,8,0.01
2013-8-8,96,84,77,83,79,77,100,87,59,29.95,29.87,5,0,8,0.06
2013-8-9,94,81,76,82,79,74,100,93,61,30.00,29.91,16,0,16,1.02
2013-8-10,93,81,75,82,78,73,100,91,66,30.07,29.99,4,0,9,0.41
2013-8-11,88,79,75,81,76,73,96,91,77,30.11,30.04,5,0,6,0.60
2013-8-12,95,80,74,83,76,73,96,90,65,30.09,30.00,5,0,12,0.05
2013-8-13,93,78,74,82,75,72,96,91,69,30.03,29.93,10,1,10,0.47
2013-8-14,80,75,72,76,74,71,96,94,89,30.01,29.90,8,0,8,3.33
2013-8-15,87,78,72,78,74,71,96,89,73,29.98,29.90,5,1,7,0.00
2013-8-16,90,79,71,79,74,70,95,87,66,29.97,29.89,5,0,10,0.00
2013-8-17,82,76,73,76,72,70,94,90,80,29.98,29.91,8,1,13,0.00
2013-8-18,80,75,72,77,73,71,95,93,87,29.98,29.92,8,2,10,0.04
2013-8-19,89,79,74,80,75,73,95,88,71,30.04,29.95,6,0,7,0.01
2013-8-20,93,80,72,81,75,70,96,86,62,30.05,29.97,6,0,8,0.00
2013-8-21,90,79,74,80,75,71,96,88,67,30.11,30.02,7,0,9,0.00
2013-8-22,91,81,73,80,76,71,95,86,64,30.08,29.95,7,1,12,0.01
2013-8-23,89,79,72,80,75,71,95,87,71,30.00,29.92,8,1,9,0.01
2013-8-24,84,77,73,78,74,71,95,90,79,30.09,29.96,5,0,9,0.02
2013-8-25,86,77,72,78,74,71,95,89,76,30.17,30.07,8,1,9,0.02
2013-8-26,89,79,73,78,74,70,95,85,61,30.19,30.08,7,1,8,0.00
2013-8-27,88,76,67,74,69,65,94,81,56,30.11,30.02,7,0,9,0.00
2013-8-28,89,75,64,75,68,62,95,81,55,30.08,30.00,4,0,6,0.00
2013-8-29,93,78,66,77,70,65,96,80,51,30.06,29.96,4,0,7,0.00
2013-8-30,94,79,68,76,72,66,96,80,49,30.03,29.91,6,0,8,0.00
2013-8-31,93,80,70,80,74,68,95,83,61,29.97,29.85,5,0,9,0.00
2013-9-1,96,82,72,80,76,70,96,83,55,29.93,29.83,6,0,7,0.00
2013-9-2,81,75,73,79,74,72,96,95,94,29.95,29.89,0,0,3,0.00
2013-9-3,79,76,75,74,73,73,93,90,84,29.97,29.90,4,0,7,0.00
2013-9-4,94,80,72,82,76,70,95,87,65,30.04,29.93,8,0,12,0.00
2013-9-5,93,80,73,82,76,72,96,88,64,30.09,30.01,4,0,6,0.04
2013-9-6,94,80,73,82,75,71,96,88,59,30.09,29.98,7,0,9,0.01
2013-9-7,92,80,72,79,74,70,95,84,57,30.05,29.94,5,0,7,0.01
2013-9-8,95,79,70,79,73,69,96,84,55,29.99,29.91,4,0,7,0.11
2013-9-9,94,80,71,79,73,69,96,83,57,30.03,29.94,5,0,6,0.01
2013-9-10,94,81,72,79,74,70,95,82,55,30.10,30.01,6,0,8,0.00
2013-9-11,94,81,72,77,74,70,94,81,52,30.11,30.01,8,1,9,0.00
2013-9-12,94,80,70,78,73,69,95,80,50,30.03,29.90,6,1,9,0.00
2013-9-13,96,80,70,78,73,69,96,81,51,29.93,29.78,4,0,6,0.02
2013-9-14,90,78,70,76,72,67,95,82,61,29.97,29.85,6,1,9,0.00
2013-9-15,94,79,68,78,71,63,94,78,53,30.04,29.96,4,0,6,0.00
2013-9-16,94,80,71,79,74,70,95,83,56,30.07,29.97,6,1,8,0.00
2013-9-17,94,80,71,80,74,69,94,82,53,30.07,29.95,7,1,8,0.00
2013-9-18,89,78,74,80,74,72,94,88,73,30.05,29.97,7,1,10,0.00
2013-9-19,91,77,73,80,74,71,95,91,68,30.04,29.95,6,1,8,1.59
2013-9-20,90,79,74,81,76,73,96,91,75,29.98,29.80,7,0,10,0.07
2013-9-21,79,76,70,77,74,69,96,95,91,29.80,29.70,7,1,9,1.46
2013-9-22,79,71,66,70,67,64,95,87,72,29.81,29.72,7,2,10,0.23
2013-9-23,90,76,64,80,71,60,95,85,70,29.84,29.77,6,0,8,0.00
2013-9-24,84,78,75,81,76,73,96,94,86,29.84,29.73,11,0,12,1.47
2013-9-25,90,77,68,78,72,66,96,86,53,29.83,29.74,4,0,6,0.01
2013-9-26,86,74,63,73,68,61,96,83,57,29.92,29.80,6,1,7,0.00
2013-9-27,87,76,70,75,71,68,94,85,64,30.01,29.91,6,0,7,0.00
2013-9-28,86,74,66,71,68,63,94,81,54,30.07,29.97,5,0,7,0.00
2013-9-29,81,69,64,73,66,63,95,92,76,30.03,29.93,3,0,5,0.00
2013-9-30,82,74,69,76,71,66,94,90,81,29.96,29.90,5,0,13,0.03
2013-10-1,85,75,69,78,72,67,95,91,76,30.02,29.94,3,0,4,0.08
2013-10-2,84,76,73,77,73,71,95,90,78,30.03,29.95,4,0,7,0.00
2013-10-3,90,78,72,79,74,70,96,87,64,30.02,29.92,5,0,9,0.01
2013-10-4,91,79,73,79,74,71,96,87,61,30.01,29.94,10,1,16,0.00
2013-10-5,87,78,73,80,74,71,96,89,69,30.00,29.88,7,1,9,0.17
2013-10-6,85,74,64,78,71,58,96,89,76,29.92,29.77,10,1,13,0.09
2013-10-7,74,64,56,60,56,53,91,76,54,30.01,29.91,12,2,12,0.00
2013-10-8,76,63,54,62,57,52,94,82,56,30.03,29.95,6,1,8,0.00
2013-10-9,86,69,55,72,64,53,96,85,57,30.06,29.98,4,0,6,0.00
2013-10-10,84,71,66,75,68,64,95,90,72,30.09,29.97,5,0,6,0.00
2013-10-11,88,73,63,76,69,62,96,87,60,30.03,29.93,6,0,8,0.00
2013-10-12,88,74,65,76,70,63,96,86,60,30.06,29.96,5,0,8,0.00
2013-10-13,88,76,69,77,71,67,96,85,61,30.14,30.03,4,0,6,0.00
2013-10-14,87,73,66,70,67,64,95,81,52,30.09,29.99,5,0,7,0.00
2013-10-15,85,73,64,74,68,62,95,86,64,30.03,29.92,4,0,6,0.00
2013-10-16,86,74,67,75,70,66,96,87,64,29.98,29.89,7,0,10,0.00
2013-10-17,76,71,64,72,68,61,95,90,81,29.97,29.88,6,1,8,0.00
2013-10-18,72,65,59,62,60,57,93,85,65,30.03,29.91,7,1,9,0.02
2013-10-19,70,63,59,65,60,56,95,91,78,30.00,29.89,6,1,8,0.55
2013-10-20,74,61,52,62,56,51,94,86,62,30.05,29.96,6,1,8,0.00
2013-10-21,71,61,53,64,58,52,95,91,79,30.05,29.94,4,0,6,0.04
2013-10-22,78,67,58,66,62,56,94,84,60,29.97,29.89,6,1,7,0.00
2013-10-23,73,60,49,57,51,46,95,76,42,30.12,29.97,8,2,10,0.00
2013-10-24,80,60,44,57,50,42,96,76,38,30.21,30.09,8,0,9,0.00
2013-10-25,66,56,46,53,47,41,94,74,45,30.38,30.20,11,2,13,0.00
2013-10-26,74,55,40,55,46,37,94,75,42,30.30,30.14,4,0,7,0.00
2013-10-27,73,59,46,64,56,45,96,89,65,30.15,30.05,5,0,7,0.00
2013-10-28,82,67,56,71,63,55,96,87,65,30.17,30.06,7,0,9,0.00
2013-10-29,81,68,58,70,63,56,96,87,61,30.22,30.14,5,0,10,0.00
2013-10-30,80,70,62,71,67,61,96,89,72,30.18,30.02,6,0,9,0.00
2013-10-31,79,74,69,73,70,68,95,89,79,30.01,29.78,10,2,16,0.55
2013-11-1,77,67,54,68,61,52,95,84,55,29.92,29.78,6,0,8,0.23
2013-11-2,71,59,50,59,52,47,96,78,44,30.14,29.90,10,2,10,0.00
2013-11-3,68,52,42,51,46,40,94,81,49,30.23,30.11,9,1,14,0.00
2013-11-4,69,58,45,62,54,44,94,85,73,30.24,30.14,4,0,6,0.00
2013-11-5,76,66,60,66,60,55,91,82,69,30.21,30.10,10,1,13,0.00
2013-11-6,80,70,58,73,66,55,94,87,77,30.11,30.02,7,1,10,0.25
2013-11-7,70,57,46,68,52,42,94,84,59,30.28,30.04,13,5,16,0.01
2013-11-8,64,50,38,46,41,36,93,76,45,30.32,30.18,12,2,16,0.00
2013-11-9,73,57,42,62,51,40,93,83,61,30.22,30.13,5,0,6,0.00
2013-11-10,74,61,52,61,56,50,93,82,55,30.24,30.14,6,1,8,0.00
2013-11-11,77,60,47,58,53,45,94,81,48,30.22,30.10,6,0,7,0.00
2013-11-12,70,53,40,58,48,33,95,83,61,30.45,30.15,18,5,20,0.00
2013-11-13,55,41,32,35,30,26,92,69,38,30.51,30.38,11,3,17,0.00
2013-11-14,66,50,31,54,42,28,91,77,57,30.39,30.10,6,0,8,0.00
2013-11-15,70,62,56,67,58,50,94,88,80,30.10,29.96,7,1,8,0.01
2013-11-16,76,69,62,71,66,61,95,93,84,30.04,29.94,5,0,9,0.04
2013-11-17,81,74,69,75,72,67,96,92,83,29.94,29.85,8,1,14,0.05
2013-11-18,77,68,54,73,59,44,96,75,36,30.07,29.91,16,1,20,0.26
2013-11-19,64,53,43,45,40,33,80,63,31,30.14,30.02,10,2,12,0.00
2013-11-20,74,53,36,54,45,34,95,77,40,30.10,30.00,4,0,6,0.00
2013-11-21,69,63,55,65,61,54,95,92,87,30.18,30.09,4,0,8,0.00
2013-11-22,75,66,62,71,64,60,96,94,87,30.20,30.10,11,1,13,0.06
2013-11-23,65,58,46,63,55,42,94,91,84,30.30,30.13,13,4,13,0.00
2013-11-24,52,44,38,42,32,26,84,64,39,30.37,30.26,14,5,21,0.00
2013-11-25,55,47,36,52,43,28,95,84,66,30.27,29.82,8,2,10,0.15
2013-11-26,54,47,41,52,45,39,95,94,91,29.99,29.71,16,4,18,1.07
2013-11-27,47,39,29,39,32,26,92,76,52,30.39,29.99,14,4,14,0.00
2013-11-28,51,35,25,33,28,23,94,79,46,30.47,30.36,4,1,7,0.00
2013-11-29,60,39,27,38,31,25,94,76,31,30.52,30.39,7,1,8,0.01
2013-11-30,68,46,30,50,39,28,94,81,48,30.42,30.23,5,0,8,0.00
2013-12-1,71,53,38,57,47,36,96,84,52,30.24,29.99,6,0,9,0.00
2013-12-2,73,60,48,64,56,47,95,88,69,30.00,29.74,8,1,12,0.00
2013-12-3,74,68,61,70,66,59,96,94,87,29.79,29.69,7,1,12,0.25
2013-12-4,80,73,70,73,70,68,95,91,77,29.92,29.79,9,2,14,0.00
2013-12-5,80,75,72,76,72,70,95,93,86,29.99,29.88,7,2,12,0.04
2013-12-6,81,66,43,75,64,41,95,91,80,30.18,29.90,11,4,20,0.04
2013-12-7,43,40,39,41,38,38,94,93,91,30.30,30.17,11,4,13,0.01
2013-12-8,52,46,41,51,45,39,96,95,94,30.22,30.01,5,1,7,0.04
2013-12-9,61,54,49,58,52,48,96,94,88,30.12,30.02,6,1,7,0.53
2013-12-10,54,42,35,52,38,33,95,88,71,30.34,30.05,14,4,16,0.05
2013-12-11,56,45,31,47,39,30,94,81,57,30.39,30.29,5,1,7,0.00
2013-12-12,55,44,33,43,34,28,90,71,37,30.49,30.34,10,3,13,0.00
2013-12-13,63,48,30,55,42,27,89,81,64,30.34,29.94,5,0,8,0.00
2013-12-14,72,61,47,67,58,44,95,90,76,30.04,29.80,14,2,16,0.27
2013-12-15,49,42,30,44,37,29,93,83,72,30.30,30.04,12,3,13,0.00
2013-12-16,63,41,28,43,34,27,95,80,34,30.34,30.22,6,0,8,0.01
2013-12-17,66,44,30,47,36,29,96,78,31,30.32,30.20,6,0,8,0.00
2013-12-18,70,47,33,47,39,32,95,77,38,30.35,30.20,6,0,8,0.00
2013-12-19,72,57,40,62,53,38,95,86,67,30.20,30.01,9,1,14,0.00
2013-12-20,78,68,60,71,64,57,94,89,76,30.05,29.94,10,1,14,0.00
2013-12-21,77,75,72,73,72,70,93,90,87,29.83,29.75,16,8,22,0.00
2013-12-22,63,59,56,60,57,55,95,94,89,30.11,29.83,8,0,8,0.92
2013-12-23,56,44,34,55,41,31,95,89,80,30.44,30.09,14,4,16,0.02
2013-12-24,51,37,29,36,31,27,94,80,53,30.50,30.37,11,3,12,0.00
2013-12-25,47,36,26,37,30,23,92,80,55,30.40,30.28,5,0,7,0.00
2013-12-26,58,43,32,40,35,30,92,77,43,30.36,30.25,10,1,10,0.00
2013-12-27,62,48,38,42,38,35,91,71,44,30.39,30.25,10,2,14,0.00
2013-12-28,50,48,44,49,45,38,95,91,68,30.25,29.92,10,1,10,1.50
2013-12-29,62,50,41,49,46,40,95,85,52,30.10,29.93,6,1,7,0.00
2013-12-30,54,48,41,50,46,40,95,92,84,30.30,30.08,7,0,9,0.00
2013-12-31,46,42,39,43,40,37,93,89,85,30.40,30.28,8,2,9,0.05
2014-1-1,56,50,42,54,48,41,95,94,93,30.29,30.00,2,0,4,0.06
2014-1-2,58,50,34,56,45,28,96,83,64,30.33,29.92,18,4,18,0.06